Time;durP1;ratioP1;P1;durP2;ratioP2;P2;SDS_P1;SDS_P2;PMS_P1;PMS_P2;Temp;Humidity;BMP_temperature;BMP_pressure;BME280_temperature;BME280_humidity;BME280_pressure;Samples;Min_cycle;Max_cycle;Signal;HPM_P1;HPM_P2
2023/08/14 00:01:50;;;;;;;3.27;2.90;;;;;;;17.38;90.97;100876.09;5017100;28;20203;-76
2023/08/14 00:04:18;;;;;;;4.40;2.77;;;;;;;17.36;91.28;100880.78;5017938;28;20292;-76
2023/08/14 00:06:45;;;;;;;4.73;3.10;;;;;;;17.34;91.65;100874.66;5015183;28;20225;-76
2023/08/14 00:09:11;;;;;;;8.60;3.23;;;;;;;17.31;91.93;100869.56;5016948;28;20567;-77
2023/08/14 00:11:37;;;;;;;4.17;2.93;;;;;;;17.29;92.06;100867.00;5014998;28;20697;-76
2023/08/14 00:14:04;;;;;;;4.00;2.97;;;;;;;17.25;92.10;100870.94;5017706;28;20451;-77
2023/08/14 00:16:31;;;;;;;3.40;2.50;;;;;;;17.24;92.35;100871.06;5013282;28;20204;-76
2023/08/14 00:18:57;;;;;;;5.97;3.43;;;;;;;17.22;92.13;100873.03;5013863;28;20236;-76
2023/08/14 00:21:25;;;;;;;5.90;3.10;;;;;;;17.18;92.44;100877.84;5015442;28;20213;-77
2023/08/14 00:23:52;;;;;;;2.60;2.40;;;;;;;17.16;92.62;100879.81;5021448;28;20237;-77
2023/08/14 00:26:18;;;;;;;3.77;2.70;;;;;;;17.15;92.71;100878.13;5019025;28;20208;-77
2023/08/14 00:28:45;;;;;;;4.70;2.67;;;;;;;17.14;92.98;100884.50;5013505;28;20315;-78
2023/08/14 00:31:11;;;;;;;7.73;3.20;;;;;;;17.15;93.83;100880.81;5015479;28;20209;-76
2023/08/14 00:33:38;;;;;;;2.90;2.60;;;;;;;17.17;94.76;100881.53;5026755;28;20224;-77
2023/08/14 00:36:06;;;;;;;4.27;2.70;;;;;;;17.16;95.29;100878.97;5011198;28;20606;-76
2023/08/14 00:38:33;;;;;;;6.43;2.80;;;;;;;17.16;95.69;100878.97;5017982;28;20256;-76
2023/08/14 00:41:00;;;;;;;4.50;2.90;;;;;;;17.14;96.13;100881.78;5018594;28;20218;-77
2023/08/14 00:43:26;;;;;;;3.10;2.43;;;;;;;17.12;96.09;100877.53;5017697;28;20203;-79
2023/08/14 00:45:55;;;;;;;4.10;2.87;;;;;;;17.07;95.46;100875.22;5025023;28;20303;-77
2023/08/14 00:48:23;;;;;;;7.37;3.33;;;;;;;17.04;95.70;100880.03;5020793;28;20237;-77
2023/08/14 00:50:49;;;;;;;4.80;3.53;;;;;;;17.00;96.09;100879.47;5021927;28;20214;-76
2023/08/14 00:53:16;;;;;;;4.13;3.20;;;;;;;16.99;96.37;100872.38;5012187;28;20211;-77
2023/08/14 00:55:45;;;;;;;4.50;3.13;;;;;;;16.98;96.71;100876.03;5017794;28;20207;-77
2023/08/14 00:58:12;;;;;;;5.87;3.57;;;;;;;16.96;96.79;100873.47;5015544;28;20233;-77
2023/08/14 01:00:40;;;;;;;5.53;3.63;;;;;;;16.94;96.79;100872.75;5016921;28;20572;-76
2023/08/14 01:03:07;;;;;;;6.33;3.70;;;;;;;16.92;96.94;100872.03;5021295;28;20211;-78
2023/08/14 01:05:33;;;;;;;4.53;3.50;;;;;;;16.90;96.85;100868.63;5025832;28;20202;-76
2023/08/14 01:08:00;;;;;;;6.77;3.07;;;;;;;16.87;96.40;100862.66;5024363;28;20597;-75
2023/08/14 01:10:35;;;;;;;4.23;3.43;;;;;;;16.84;96.70;100865.63;5022943;28;20203;-77
2023/08/14 01:13:11;;;;;;;5.33;3.30;;;;;;;16.82;96.55;100865.75;5030224;28;20209;-76
2023/08/14 01:15:43;;;;;;;4.60;3.27;;;;;;;16.79;96.42;100859.78;5019531;28;20200;-76
2023/08/14 01:18:16;;;;;;;3.87;3.13;;;;;;;16.78;96.62;100863.44;5021591;28;20670;-76
2023/08/14 01:20:46;;;;;;;3.73;2.90;;;;;;;16.76;96.77;100865.41;5022088;28;20231;-77
2023/08/14 01:23:21;;;;;;;3.47;2.97;;;;;;;16.74;96.93;100862.84;5018687;28;20285;-78
2023/08/14 01:25:52;;;;;;;4.40;3.20;;;;;;;16.71;96.88;100859.56;5008840;28;20211;-76
2023/08/14 01:28:19;;;;;;;4.10;3.23;;;;;;;16.66;96.83;100858.13;5022472;28;20230;-77
2023/08/14 01:30:45;;;;;;;4.10;2.97;;;;;;;16.65;97.17;100858.28;5014435;28;20202;-76
2023/08/14 01:33:12;;;;;;;5.13;3.77;;;;;;;16.65;97.31;100863.66;5016514;28;20210;-75
2023/08/14 01:35:41;;;;;;;5.97;3.07;;;;;;;16.64;97.44;100865.50;5027417;28;20215;-76
2023/08/14 01:38:14;;;;;;;3.90;3.10;;;;;;;16.63;97.49;100863.78;5016803;28;20229;-76
2023/08/14 01:40:48;;;;;;;3.63;2.93;;;;;;;16.63;97.70;100862.94;5019502;28;20231;-77
2023/08/14 01:43:22;;;;;;;6.17;3.30;;;;;;;16.63;97.72;100866.47;5019741;28;20217;-76
2023/08/14 01:45:49;;;;;;;6.80;3.50;;;;;;;16.61;98.33;100857.66;5024162;28;20207;-77
2023/08/14 01:48:16;;;;;;;4.93;3.30;;;;;;;16.63;98.64;100868.31;5019471;28;20307;-77
2023/08/14 01:50:43;;;;;;;4.07;3.50;;;;;;;16.63;98.74;100852.19;5020226;28;20229;-78
2023/08/14 01:53:11;;;;;;;3.63;2.83;;;;;;;16.61;98.04;100854.09;5018552;28;20684;-78
2023/08/14 01:55:37;;;;;;;4.67;2.87;;;;;;;16.59;98.39;100854.25;5016684;28;20210;-77
2023/08/14 01:58:04;;;;;;;4.47;3.10;;;;;;;16.59;98.43;100853.38;5019228;28;20289;-77
2023/08/14 02:00:33;;;;;;;5.03;2.90;;;;;;;16.58;98.50;100857.91;5025299;28;20226;-77
2023/08/14 02:03:00;;;;;;;3.40;3.10;;;;;;;16.58;99.03;100857.06;5019681;28;20216;-78
2023/08/14 02:05:26;;;;;;;4.40;3.57;;;;;;;16.58;99.21;100851.69;5012869;28;20199;-75
2023/08/14 02:07:53;;;;;;;6.97;3.63;;;;;;;16.58;99.37;100854.38;5007031;28;20205;-77
2023/08/14 02:10:19;;;;;;;7.40;3.73;;;;;;;16.57;99.74;100853.50;5012925;28;20216;-78
2023/08/14 02:12:46;;;;;;;3.80;3.40;;;;;;;16.58;99.93;100851.69;5018920;28;20204;-78
2023/08/14 02:15:12;;;;;;;5.80;3.53;;;;;;;16.58;99.83;100855.22;5017020;28;20203;-77
2023/08/14 02:17:40;;;;;;;3.87;3.27;;;;;;;16.59;99.80;100848.84;5015681;28;20207;-78
2023/08/14 02:20:09;;;;;;;5.03;3.40;;;;;;;16.57;99.31;100844.59;5020169;28;20728;-76
2023/08/14 02:22:35;;;;;;;6.50;3.30;;;;;;;16.54;99.12;100851.06;5011582;28;20204;-78
2023/08/14 02:25:02;;;;;;;3.40;3.07;;;;;;;16.51;98.84;100843.28;5020279;28;20199;-78
2023/08/14 02:27:28;;;;;;;4.03;3.23;;;;;;;16.49;98.52;100841.69;5013819;28;20207;-78
2023/08/14 02:29:55;;;;;;;5.00;3.57;;;;;;;16.40;98.03;100837.97;5015053;28;20229;-78
2023/08/14 02:32:21;;;;;;;6.03;3.53;;;;;;;16.32;98.66;100837.75;5017822;28;20674;-77
2023/08/14 02:34:52;;;;;;;4.00;3.23;;;;;;;16.29;99.04;100840.72;5020009;28;20206;-78
2023/08/14 02:37:19;;;;;;;4.53;3.47;;;;;;;16.27;99.56;100832.78;5012424;28;20203;-76
2023/08/14 02:39:46;;;;;;;5.73;3.47;;;;;;;16.25;99.57;100829.38;5004920;28;20393;-76
2023/08/14 02:42:15;;;;;;;4.83;3.60;;;;;;;16.23;99.87;100827.78;5023126;28;20243;-78
2023/08/14 02:44:42;;;;;;;5.93;3.40;;;;;;;16.19;99.96;100834.38;5014225;28;20209;-77
2023/08/14 02:47:08;;;;;;;5.20;3.67;;;;;;;16.14;100.00;100825.84;5016306;28;20225;-77
2023/08/14 02:49:35;;;;;;;6.27;3.80;;;;;;;16.14;100.00;100833.91;5018309;28;20234;-77
2023/08/14 02:52:03;;;;;;;4.10;3.70;;;;;;;16.12;100.00;100830.53;5023621;28;20218;-77
2023/08/14 02:54:29;;;;;;;7.03;3.77;;;;;;;16.12;100.00;100823.28;5012784;28;20214;-77
2023/08/14 02:56:56;;;;;;;5.37;3.43;;;;;;;16.14;100.00;100817.78;5020503;28;20767;-78
2023/08/14 02:59:22;;;;;;;4.33;3.43;;;;;;;16.15;100.00;100816.81;5014190;28;20237;-76
2023/08/14 03:01:49;;;;;;;5.27;3.10;;;;;;;16.15;100.00;100816.81;5014724;28;20207;-76
2023/08/14 03:04:16;;;;;;;5.67;3.10;;;;;;;16.15;100.00;100814.13;5016567;28;20216;-77
2023/08/14 03:06:43;;;;;;;3.53;3.20;;;;;;;16.15;100.00;100814.97;5016473;28;20205;-77
2023/08/14 03:09:11;;;;;;;3.87;3.10;;;;;;;16.13;100.00;100808.88;5014010;28;20237;-78
2023/08/14 03:11:38;;;;;;;4.77;3.27;;;;;;;16.12;100.00;100812.53;5014474;28;20704;-78
2023/08/14 03:14:05;;;;;;;5.00;3.47;;;;;;;16.12;100.00;100806.34;5024906;28;20213;-77
2023/08/14 03:16:31;;;;;;;6.47;2.90;;;;;;;16.11;100.00;100810.88;5015556;28;20224;-77
2023/08/14 03:18:58;;;;;;;3.40;3.10;;;;;;;16.10;100.00;100809.16;5019739;28;20367;-77
2023/08/14 03:21:24;;;;;;;4.67;3.57;;;;;;;16.05;100.00;100815.88;5020691;28;20209;-77
2023/08/14 03:23:50;;;;;;;3.63;3.33;;;;;;;16.02;100.00;100816.13;5020766;28;20671;-77
2023/08/14 03:26:18;;;;;;;8.97;3.10;;;;;;;16.01;100.00;100817.13;5018155;28;20711;-77
2023/08/14 03:28:45;;;;;;;5.07;3.40;;;;;;;16.01;100.00;100809.06;5051073;23;20234;-75
2023/08/14 03:31:11;;;;;;;5.17;3.60;;;;;;;16.02;100.00;100816.13;5089833;28;20208;-75
2023/08/14 03:33:38;;;;;;;5.07;3.00;;;;;;;16.00;100.00;100813.56;5087630;28;20228;-74
2023/08/14 03:36:04;;;;;;;4.57;3.20;;;;;;;15.99;100.00;100811.88;5091812;28;20218;-75
2023/08/14 03:38:31;;;;;;;3.60;2.90;;;;;;;16.00;100.00;100808.19;5089056;28;20231;-72
2023/08/14 03:40:58;;;;;;;4.97;2.80;;;;;;;16.01;100.00;100809.91;5079859;28;20762;-74
2023/08/14 03:43:25;;;;;;;4.33;3.30;;;;;;;16.01;100.00;100803.69;5077184;28;20576;-74
2023/08/14 03:45:52;;;;;;;5.43;3.20;;;;;;;16.01;100.00;100795.63;5079454;28;20217;-75
2023/08/14 03:48:18;;;;;;;6.73;3.70;;;;;;;16.03;100.00;100791.84;5075535;28;20222;-75
2023/08/14 03:50:46;;;;;;;4.27;2.60;;;;;;;16.01;100.00;100793.78;5075842;28;20213;-74
2023/08/14 03:53:12;;;;;;;8.80;3.07;;;;;;;16.01;100.00;100798.31;5076967;28;20203;-75
2023/08/14 03:55:39;;;;;;;4.77;3.30;;;;;;;15.96;100.00;100786.09;5072865;28;20214;-73
2023/08/14 03:58:06;;;;;;;4.27;3.50;;;;;;;15.96;100.00;100794.16;5080163;28;20210;-74
2023/08/14 04:00:36;;;;;;;6.00;3.90;;;;;;;15.94;100.00;100792.63;5079372;28;20328;-74
2023/08/14 04:03:03;;;;;;;5.67;3.87;;;;;;;15.93;100.00;100801.66;5083916;28;20210;-74
2023/08/14 04:05:29;;;;;;;5.13;3.20;;;;;;;15.91;100.00;100804.47;5079296;28;20207;-72
2023/08/14 04:07:56;;;;;;;3.80;3.23;;;;;;;15.92;100.00;100802.63;5074445;28;20221;-74
2023/08/14 04:10:24;;;;;;;4.53;3.40;;;;;;;15.92;100.00;100808.00;5078260;28;20317;-74
2023/08/14 04:12:51;;;;;;;4.07;3.47;;;;;;;15.91;100.00;100804.47;5079774;28;20210;-74
2023/08/14 04:15:19;;;;;;;4.07;3.10;;;;;;;15.92;100.00;100803.50;5079018;28;20226;-74
2023/08/14 04:17:47;;;;;;;3.50;2.93;;;;;;;15.93;100.00;100805.19;5075720;28;20200;-74
2023/08/14 04:20:14;;;;;;;6.13;3.23;;;;;;;15.93;100.00;100805.19;5081150;28;20226;-74
2023/08/14 04:22:41;;;;;;;6.13;3.23;;;;;;;15.93;100.00;100796.28;5079075;28;20212;-71
2023/08/14 04:25:08;;;;;;;7.67;3.60;;;;;;;15.92;100.00;100795.44;5079723;28;20204;-75
2023/08/14 04:27:37;;;;;;;5.90;3.40;;;;;;;15.92;100.00;100790.06;5074018;28;20256;-75
2023/08/14 04:30:05;;;;;;;5.23;3.43;;;;;;;15.93;100.00;100783.72;5076185;28;20243;-73
2023/08/14 04:32:32;;;;;;;6.93;3.80;;;;;;;15.94;100.00;100787.25;5075259;28;21292;-74
2023/08/14 04:35:00;;;;;;;7.10;3.53;;;;;;;15.93;100.00;100797.13;5077704;28;20218;-73
2023/08/14 04:37:26;;;;;;;4.43;3.87;;;;;;;15.94;100.00;100792.63;5078927;28;20235;-73
2023/08/14 04:39:53;;;;;;;7.67;3.63;;;;;;;15.94;100.00;100789.94;5080677;28;20231;-71
2023/08/14 04:42:20;;;;;;;6.47;4.13;;;;;;;15.94;100.00;100788.06;5079174;28;20197;-74
2023/08/14 04:44:47;;;;;;;6.83;3.80;;;;;;;15.96;100.00;100790.63;5080973;28;20644;-74
2023/08/14 04:47:14;;;;;;;6.33;4.13;;;;;;;15.95;100.00;100792.47;5074979;28;20203;-74
2023/08/14 04:49:41;;;;;;;5.23;4.00;;;;;;;15.97;100.00;100792.34;5085921;28;20228;-73
2023/08/14 04:52:09;;;;;;;5.83;3.93;;;;;;;15.97;100.00;100784.28;5078418;28;20299;-74
2023/08/14 04:54:36;;;;;;;7.20;4.10;;;;;;;16.00;100.00;100784.03;5080487;28;20204;-75
2023/08/14 04:57:03;;;;;;;6.73;3.80;;;;;;;16.00;100.00;100786.72;5080988;28;20253;-74
2023/08/14 04:59:30;;;;;;;4.93;3.80;;;;;;;15.95;100.00;100779.03;5081278;28;20659;-73
2023/08/14 05:01:56;;;;;;;5.43;3.87;;;;;;;15.93;100.00;100790.91;5083153;28;20670;-74
2023/08/14 05:04:24;;;;;;;4.97;3.77;;;;;;;15.90;100.00;100793.84;5077174;28;20267;-74
2023/08/14 05:06:52;;;;;;;4.30;3.87;;;;;;;15.90;100.00;100796.53;5078980;28;20214;-71
2023/08/14 05:09:20;;;;;;;6.00;4.00;;;;;;;15.89;100.00;100784.09;5082924;28;20686;-74
2023/08/14 05:11:47;;;;;;;5.57;3.97;;;;;;;15.88;100.00;100793.97;5079080;28;20227;-74
2023/08/14 05:14:18;;;;;;;5.23;3.50;;;;;;;15.91;100.00;100801.78;5074985;28;20745;-74
2023/08/14 05:16:45;;;;;;;5.43;3.43;;;;;;;15.95;100.00;100795.16;5081372;28;20218;-74
2023/08/14 05:19:12;;;;;;;4.17;3.77;;;;;;;16.01;100.00;100801.84;5076464;28;20793;-74
2023/08/14 05:21:39;;;;;;;6.57;4.30;;;;;;;16.04;100.00;100801.59;5081960;28;20314;-75
2023/08/14 05:24:06;;;;;;;6.03;3.67;;;;;;;16.07;100.00;100797.81;5079323;28;20304;-74
2023/08/14 05:26:34;;;;;;;6.53;3.80;;;;;;;16.10;100.00;100797.56;5085699;28;20689;-74
2023/08/14 05:29:01;;;;;;;4.23;3.80;;;;;;;16.15;100.00;100796.16;5079641;28;20305;-75
2023/08/14 05:31:28;;;;;;;6.97;3.77;;;;;;;16.22;100.00;100796.50;5085002;28;20231;-72
2023/08/14 05:33:55;;;;;;;7.30;3.43;;;;;;;16.30;100.00;100785.97;5081635;28;20204;-74
2023/08/14 05:36:22;;;;;;;6.10;3.90;;;;;;;16.37;100.00;100792.53;5089911;28;20721;-74
2023/08/14 05:38:49;;;;;;;6.90;3.53;;;;;;;16.46;100.00;100797.13;5087714;28;20282;-71
2023/08/14 05:41:16;;;;;;;5.70;3.40;;;;;;;16.53;100.00;100789.38;5079158;28;20211;-73
2023/08/14 05:43:45;;;;;;;4.03;3.63;;;;;;;16.59;100.00;100778.94;5083506;28;20224;-74
2023/08/14 05:46:12;;;;;;;6.60;3.67;;;;;;;16.66;100.00;100787.34;5075924;28;20736;-74
2023/08/14 05:48:38;;;;;;;5.53;3.70;;;;;;;16.73;100.00;100793.06;5080687;28;20277;-74
2023/08/14 05:51:05;;;;;;;4.53;3.67;;;;;;;16.82;100.00;100785.06;5078043;28;20286;-74
2023/08/14 05:53:32;;;;;;;5.03;3.77;;;;;;;16.94;100.00;100792.03;5082792;28;20453;-74
2023/08/14 05:55:59;;;;;;;6.57;3.83;;;;;;;17.04;100.00;100789.38;5077265;28;21044;-74
2023/08/14 05:58:25;;;;;;;6.90;4.07;;;;;;;17.14;100.00;100787.59;5080805;28;20721;-74
2023/08/14 06:00:54;;;;;;;8.80;4.77;;;;;;;17.25;100.00;100792.88;5078669;28;20209;-74
2023/08/14 06:03:21;;;;;;;6.63;4.53;;;;;;;17.37;100.00;100790.09;5084263;28;20213;-75
2023/08/14 06:05:47;;;;;;;5.37;4.10;;;;;;;17.47;100.00;100794.50;5090349;28;20225;-74
2023/08/14 06:08:14;;;;;;;8.13;4.17;;;;;;;17.55;99.59;100788.44;5080370;28;20614;-72
2023/08/14 06:10:41;;;;;;;8.10;4.00;;;;;;;17.64;98.56;100793.88;5075459;28;20231;-75
2023/08/14 06:13:08;;;;;;;7.70;3.90;;;;;;;17.75;97.90;100794.72;5086303;28;20236;-73
2023/08/14 06:15:35;;;;;;;10.77;4.20;;;;;;;17.84;97.11;100799.28;5075395;28;20329;-75
2023/08/14 06:18:04;;;;;;;10.80;4.17;;;;;;;17.93;97.12;100799.28;5082686;28;20218;-74
2023/08/14 06:20:31;;;;;;;8.77;4.07;;;;;;;18.02;96.93;100798.44;5082419;28;20244;-73
2023/08/14 06:22:57;;;;;;;7.50;3.90;;;;;;;18.13;96.91;100796.59;5086275;28;20208;-75
2023/08/14 06:25:28;;;;;;;7.03;3.60;;;;;;;18.22;96.21;100791.22;5085753;28;21088;-75
2023/08/14 06:27:55;;;;;;;7.90;3.80;;;;;;;18.37;94.73;100788.91;5085253;28;20377;-73
2023/08/14 06:30:22;;;;;;;5.13;3.47;;;;;;;18.49;92.55;100797.69;5080172;28;20248;-75
2023/08/14 06:32:49;;;;;;;7.10;3.90;;;;;;;18.61;90.92;100802.00;5078886;28;20214;-73
2023/08/14 06:35:17;;;;;;;5.53;3.30;;;;;;;18.76;90.28;100802.38;5076695;28;20216;-75
2023/08/14 06:37:44;;;;;;;6.50;3.40;;;;;;;18.91;90.43;100796.34;5077433;28;20200;-73
2023/08/14 06:40:12;;;;;;;6.37;3.37;;;;;;;19.06;89.12;100794.88;5074453;28;20298;-73
2023/08/14 06:42:38;;;;;;;3.77;2.83;;;;;;;19.23;87.89;100795.09;5076528;28;20266;-74
2023/08/14 06:45:06;;;;;;;4.80;2.87;;;;;;;19.33;85.25;100780.56;5082028;28;20257;-74
2023/08/14 06:47:33;;;;;;;6.50;2.97;;;;;;;19.45;85.24;100783.03;5083078;28;20333;-73
2023/08/14 06:49:59;;;;;;;4.30;2.80;;;;;;;19.58;85.56;100770.03;5076202;28;20242;-74
2023/08/14 06:52:27;;;;;;;5.40;3.00;;;;;;;19.76;84.50;100776.31;5083274;28;20206;-73
2023/08/14 06:54:54;;;;;;;5.03;2.60;;;;;;;19.91;83.47;100769.38;5078730;28;20206;-73
2023/08/14 06:57:21;;;;;;;7.03;2.80;;;;;;;20.06;81.37;100767.00;5083559;28;20216;-73
2023/08/14 06:59:47;;;;;;;4.83;2.93;;;;;;;20.22;79.46;100769.00;5082444;28;20734;-73
2023/08/14 07:02:14;;;;;;;3.33;2.30;;;;;;;20.36;79.76;100769.31;5074991;28;20763;-74
2023/08/14 07:04:40;;;;;;;4.25;2.47;;;;;;;20.49;79.06;100774.28;5072848;28;20555;-74
2023/08/14 07:07:07;;;;;;;3.25;2.00;;;;;;;20.66;79.16;100773.41;5080089;28;20331;-73
2023/08/14 07:09:35;;;;;;;5.18;2.40;;;;;;;20.82;77.18;100771.78;5079285;28;20239;-73
2023/08/14 07:12:01;;;;;;;4.18;2.28;;;;;;;20.95;76.98;100767.66;5077756;28;20294;-74
2023/08/14 07:14:28;;;;;;;2.33;1.65;;;;;;;21.12;76.14;100772.16;5078144;28;20206;-73
2023/08/14 07:16:54;;;;;;;4.18;1.67;;;;;;;21.29;75.90;100761.41;5082057;28;20215;-74
2023/08/14 07:19:21;;;;;;;2.78;1.88;;;;;;;21.45;75.57;100766.88;5076718;28;20309;-74
2023/08/14 07:21:48;;;;;;;2.83;1.92;;;;;;;21.63;74.74;100761.34;5083730;28;20654;-74
2023/08/14 07:24:15;;;;;;;3.83;1.80;;;;;;;21.79;74.33;100764.09;5080815;28;20216;-73
2023/08/14 07:26:43;;;;;;;3.40;1.67;;;;;;;21.98;73.21;100774.63;5087663;28;20200;-75
2023/08/14 07:29:10;;;;;;;3.45;1.65;;;;;;;22.14;71.19;100771.09;5080966;28;20244;-77
2023/08/14 07:31:37;;;;;;;4.05;1.77;;;;;;;22.27;70.56;100759.75;5084561;28;20326;-77
2023/08/14 07:34:04;;;;;;;3.05;1.88;;;;;;;22.43;71.16;100751.59;5079801;28;20652;-76
2023/08/14 07:36:31;;;;;;;2.05;1.65;;;;;;;22.59;68.79;100746.13;5082127;28;20211;-76
2023/08/14 07:38:57;;;;;;;2.38;2.03;;;;;;;22.72;69.84;100741.03;5089671;28;20275;-78
2023/08/14 07:41:24;;;;;;;3.38;1.70;;;;;;;22.91;68.62;100744.41;5085490;28;20205;-77
2023/08/14 07:43:56;;;;;;;3.25;1.90;;;;;;;23.02;67.88;100747.59;5089120;28;20200;-77
2023/08/14 07:46:23;;;;;;;4.20;2.22;;;;;;;23.10;67.83;100739.41;5088341;28;20200;-77
2023/08/14 07:48:50;;;;;;;2.78;1.75;;;;;;;23.20;68.03;100752.78;5085021;28;20262;-75
2023/08/14 07:51:17;;;;;;;2.20;1.50;;;;;;;23.29;68.25;100742.72;5080971;28;20688;-76
2023/08/14 07:53:44;;;;;;;2.50;1.80;;;;;;;23.37;68.06;100746.25;5078178;28;20257;-76
2023/08/14 07:56:11;;;;;;;2.90;2.03;;;;;;;23.45;68.06;100748.09;5076893;28;20296;-74
2023/08/14 07:58:39;;;;;;;3.28;2.00;;;;;;;23.56;69.09;100757.72;5076092;28;20638;-73
2023/08/14 08:01:08;;;;;;;2.83;1.63;;;;;;;23.70;68.38;100743.38;5076474;28;20212;-74
2023/08/14 08:03:35;;;;;;;2.65;1.80;;;;;;;23.87;68.51;100725.91;5082081;28;20676;-74
2023/08/14 08:06:01;;;;;;;4.22;1.90;;;;;;;24.04;67.68;100724.75;5078953;28;20204;-74
2023/08/14 08:08:28;;;;;;;2.90;1.80;;;;;;;24.27;66.55;100737.53;5080853;28;20748;-74
2023/08/14 08:10:55;;;;;;;3.28;1.70;;;;;;;24.44;65.74;100755.41;5073343;28;20610;-74
2023/08/14 08:13:22;;;;;;;4.05;1.88;;;;;;;24.60;66.07;100741.63;5078824;28;20204;-73
2023/08/14 08:15:49;;;;;;;2.17;1.80;;;;;;;24.75;64.77;100747.91;5078872;28;20210;-73
2023/08/14 08:18:17;;;;;;;2.60;1.75;;;;;;;24.91;64.23;100738.72;5081842;28;20249;-75
2023/08/14 08:20:44;;;;;;;2.35;1.77;;;;;;;25.06;63.72;100745.06;5084198;28;20206;-74
2023/08/14 08:23:11;;;;;;;4.90;1.98;;;;;;;25.23;62.88;100749.28;5085834;28;20294;-74
2023/08/14 08:25:39;;;;;;;4.22;1.90;;;;;;;25.41;61.65;100743.41;5086705;28;20355;-73
2023/08/14 08:28:06;;;;;;;3.40;2.03;;;;;;;25.54;60.53;100745.44;5087321;28;20226;-74
2023/08/14 08:30:33;;;;;;;2.47;1.75;;;;;;;25.63;59.79;100755.22;5090388;28;20318;-74
2023/08/14 08:32:59;;;;;;;2.47;1.52;;;;;;;25.76;60.15;100746.34;5089054;28;20195;-73
2023/08/14 08:35:28;;;;;;;4.05;1.75;;;;;;;25.94;60.00;100749.50;5081387;28;20277;-74
2023/08/14 08:37:54;;;;;;;2.47;1.75;;;;;;;26.12;58.79;100740.84;5087760;28;20205;-73
2023/08/14 08:40:23;;;;;;;3.42;2.20;;;;;;;26.28;57.20;100741.41;5091343;28;20223;-75
2023/08/14 08:42:50;;;;;;;2.72;1.90;;;;;;;26.46;57.19;100751.03;5092506;28;20200;-74
2023/08/14 08:45:18;;;;;;;6.65;1.88;;;;;;;26.68;57.11;100744.47;5085388;28;20208;-74
2023/08/14 08:47:49;;;;;;;3.17;1.85;;;;;;;26.86;55.48;100738.50;5085827;28;20206;-74
2023/08/14 08:50:16;;;;;;;1.77;1.60;;;;;;;26.96;55.50;100739.00;5092894;28;20610;-74
2023/08/14 08:52:44;;;;;;;2.47;1.75;;;;;;;27.11;54.27;100734.25;5088878;28;20208;-74
2023/08/14 08:55:11;;;;;;;2.35;1.65;;;;;;;27.21;54.22;100731.16;5083219;28;20209;-73
2023/08/14 08:57:39;;;;;;;3.17;1.83;;;;;;;27.31;54.03;100731.59;5087017;28;20309;-73
2023/08/14 09:00:08;;;;;;;2.80;1.95;;;;;;;27.34;52.99;100736.66;5086055;28;20224;-74
2023/08/14 09:02:35;;;;;;;3.17;2.00;;;;;;;27.37;53.18;100733.53;5087492;28;20208;-74
2023/08/14 09:05:02;;;;;;;3.13;1.85;;;;;;;27.46;52.92;100725.97;5091890;28;20216;-73
2023/08/14 09:07:29;;;;;;;3.80;1.70;;;;;;;27.54;52.36;100728.53;5089250;28;20210;-73
2023/08/14 09:09:58;;;;;;;3.00;1.65;;;;;;;27.54;51.66;100726.63;5087433;28;20229;-74
2023/08/14 09:12:25;;;;;;;4.30;2.30;;;;;;;27.59;51.21;100726.88;5086905;28;20211;-74
2023/08/14 09:15:04;;;;;;;2.70;1.52;;;;;;;27.55;52.03;100719.28;5090871;28;20294;-73
2023/08/14 09:17:31;;;;;;;3.00;1.77;;;;;;;27.52;51.58;100717.78;5089021;28;20292;-73
2023/08/14 09:19:57;;;;;;;2.10;1.60;;;;;;;27.49;51.70;100718.19;5084820;28;20224;-74
2023/08/14 09:22:27;;;;;;;2.55;1.77;;;;;;;27.52;52.15;100726.00;5086930;28;20280;-73
2023/08/14 09:24:54;;;;;;;3.20;1.70;;;;;;;27.60;51.87;100725.84;5085890;28;20212;-74
2023/08/14 09:27:22;;;;;;;4.50;2.20;;;;;;;27.60;51.24;100731.31;5085820;28;20204;-74
2023/08/14 09:29:51;;;;;;;3.15;1.90;;;;;;;27.64;51.59;100743.53;5073390;22;20241;-71
2023/08/14 09:32:22;;;;;;;3.03;1.77;;;;;;;27.65;50.91;100737.00;5021236;28;20223;-71
2023/08/14 09:34:49;;;;;;;2.13;1.75;;;;;;;27.62;50.47;100740.16;5014414;28;20210;-71
2023/08/14 09:37:20;;;;;;;3.47;1.88;;;;;;;27.54;50.49;100725.78;5020130;28;20271;-70
2023/08/14 09:39:46;;;;;;;3.20;1.80;;;;;;;27.49;51.77;100733.78;5019600;28;20252;-70
2023/08/14 09:42:15;;;;;;;2.42;2.00;;;;;;;27.50;51.25;100730.81;5020947;28;20213;-71
2023/08/14 09:44:44;;;;;;;2.90;1.70;;;;;;;27.48;50.78;100732.06;5022645;28;20285;-70
2023/08/14 09:47:14;;;;;;;3.08;1.45;;;;;;;27.42;50.47;100730.16;5020131;28;20210;-70
2023/08/14 09:49:41;;;;;;;2.75;1.67;;;;;;;27.45;51.21;100725.13;5022161;27;20639;-69
2023/08/14 09:52:08;;;;;;;4.85;2.00;;;;;;;27.51;50.67;100727.03;5017894;27;20230;-70
2023/08/14 09:54:35;;;;;;;3.63;1.52;;;;;;;27.50;51.22;100728.09;5015864;28;20202;-70
2023/08/14 09:57:04;;;;;;;3.28;1.83;;;;;;;27.46;51.26;100732.28;5021294;28;20272;-70
2023/08/14 09:59:31;;;;;;;4.07;1.75;;;;;;;27.50;50.20;100722.63;5018204;28;20214;-71
2023/08/14 10:02:00;;;;;;;3.33;1.70;;;;;;;27.51;50.74;100720.72;5014769;28;20210;-70
2023/08/14 10:04:30;;;;;;;4.50;1.75;;;;;;;27.57;51.01;100720.78;5020816;28;20225;-70
2023/08/14 10:06:58;;;;;;;3.33;1.80;;;;;;;27.64;50.24;100727.09;5020612;28;20213;-70
2023/08/14 10:09:31;;;;;;;3.10;1.70;;;;;;;27.65;49.48;100720.59;5018323;28;20244;-70
2023/08/14 10:12:03;;;;;;;5.45;2.13;;;;;;;27.69;49.45;100723.75;5016101;27;20232;-70
2023/08/14 10:14:31;;;;;;;5.00;2.17;;;;;;;27.76;49.78;100716.41;5018160;28;20218;-70
2023/08/14 10:17:01;;;;;;;2.75;1.70;;;;;;;27.88;49.45;100713.91;5024679;28;20226;-71
2023/08/14 10:19:30;;;;;;;3.92;1.77;;;;;;;27.96;49.40;100713.69;5024684;27;20231;-70
2023/08/14 10:21:58;;;;;;;3.63;1.90;;;;;;;28.04;49.44;100715.38;5027564;28;20202;-71
2023/08/14 10:24:27;;;;;;;3.60;1.90;;;;;;;28.05;49.43;100714.34;5019367;28;20199;-71
2023/08/14 10:26:55;;;;;;;3.53;1.90;;;;;;;28.11;48.28;100710.78;5016874;28;20199;-72
2023/08/14 10:29:22;;;;;;;3.28;1.95;;;;;;;28.15;48.77;100707.38;5024463;27;20263;-69
2023/08/14 10:31:49;;;;;;;3.08;1.77;;;;;;;28.25;48.89;100713.34;5015139;27;20229;-71
2023/08/14 10:34:17;;;;;;;2.70;1.80;;;;;;;28.38;48.58;100709.72;5020632;28;20241;-70
2023/08/14 10:36:44;;;;;;;5.53;2.20;;;;;;;28.43;48.24;100712.69;5025498;28;20225;-70
2023/08/14 10:39:11;;;;;;;3.65;1.75;;;;;;;28.49;47.06;100710.97;5022042;28;20234;-70
2023/08/14 10:41:38;;;;;;;2.20;1.80;;;;;;;28.49;46.98;100706.34;5025743;27;20599;-71
2023/08/14 10:44:06;;;;;;;2.25;1.92;;;;;;;28.46;48.03;100705.94;5030464;28;20214;-70
2023/08/14 10:46:36;;;;;;;3.75;2.15;;;;;;;28.47;47.79;100710.38;5018226;28;20909;-71
2023/08/14 10:49:02;;;;;;;4.00;1.88;;;;;;;28.52;48.44;100714.13;5017603;28;20242;-71
2023/08/14 10:51:33;;;;;;;3.90;1.80;;;;;;;28.62;48.67;100711.81;5020445;28;20311;-71
2023/08/14 10:54:09;;;;;;;4.35;2.00;;;;;;;28.72;47.62;100713.25;5016116;28;20210;-69
2023/08/14 10:56:45;;;;;;;3.92;1.95;;;;;;;28.72;47.14;100714.09;5025155;27;20249;-71
2023/08/14 10:59:26;;;;;;;3.35;1.77;;;;;;;28.70;47.63;100718.97;5014364;28;20229;-69
2023/08/14 11:02:05;;;;;;;2.75;2.10;;;;;;;28.73;48.32;100720.44;5017429;28;20238;-71
2023/08/14 11:04:32;;;;;;;2.53;1.85;;;;;;;28.83;48.03;100718.97;5016246;28;20863;-70
2023/08/14 11:07:08;;;;;;;2.83;1.80;;;;;;;28.92;47.63;100720.41;5018561;28;20201;-71
2023/08/14 11:09:36;;;;;;;3.08;1.85;;;;;;;29.04;47.02;100715.09;5012039;28;20636;-70
2023/08/14 11:12:05;;;;;;;2.15;1.70;;;;;;;29.07;47.27;100719.31;5020636;28;20329;-70
2023/08/14 11:14:34;;;;;;;4.10;2.25;;;;;;;29.10;47.23;100713.41;5018240;28;20206;-70
2023/08/14 11:17:01;;;;;;;2.80;1.95;;;;;;;29.16;46.70;100707.91;5018848;27;20690;-70
2023/08/14 11:19:28;;;;;;;4.45;2.10;;;;;;;29.22;47.44;100714.41;5021357;28;20228;-70
2023/08/14 11:21:54;;;;;;;4.90;2.05;;;;;;;29.24;45.53;100710.38;5016973;28;20244;-69
2023/08/14 11:24:22;;;;;;;2.75;2.15;;;;;;;29.21;46.22;100715.47;5017496;28;20209;-70